sensor_id;sensor_type;location;lat;lon;timestamp;P1;durP1;ratioP1;P2;durP2;ratioP2
19609;SDS011;9952;47.122;-1.638;2022-12-07T00:01:39;17.83;;;10.33;;
19609;SDS011;9952;47.122;-1.638;2022-12-07T00:06:21;17.10;;;11.13;;
19609;SDS011;9952;47.122;-1.638;2022-12-07T00:11:13;19.40;;;11.03;;
19609;SDS011;9952;47.122;-1.638;2022-12-07T00:16:02;18.10;;;11.03;;
19609;SDS011;9952;47.122;-1.638;2022-12-07T00:20:47;16.30;;;9.77;;
19609;SDS011;9952;47.122;-1.638;2022-12-07T00:25:29;18.30;;;9.47;;
19609;SDS011;9952;47.122;-1.638;2022-12-07T00:30:10;19.53;;;10.90;;
19609;SDS011;9952;47.122;-1.638;2022-12-07T00:34:51;21.60;;;10.53;;
19609;SDS011;9952;47.122;-1.638;2022-12-07T00:39:32;18.90;;;9.97;;
19609;SDS011;9952;47.122;-1.638;2022-12-07T00:44:13;16.00;;;10.37;;
19609;SDS011;9952;47.122;-1.638;2022-12-07T00:48:54;20.13;;;11.37;;
19609;SDS011;9952;47.122;-1.638;2022-12-07T00:53:35;17.10;;;10.63;;
19609;SDS011;9952;47.122;-1.638;2022-12-07T00:58:16;18.03;;;9.53;;
19609;SDS011;9952;47.122;-1.638;2022-12-07T01:02:59;17.33;;;9.93;;
19609;SDS011;9952;47.122;-1.638;2022-12-07T01:07:39;18.60;;;10.37;;
19609;SDS011;9952;47.122;-1.638;2022-12-07T01:12:20;18.17;;;10.07;;
19609;SDS011;9952;47.122;-1.638;2022-12-07T01:17:01;18.43;;;10.30;;
19609;SDS011;9952;47.122;-1.638;2022-12-07T01:21:42;17.00;;;9.67;;
19609;SDS011;9952;47.122;-1.638;2022-12-07T01:26:23;19.93;;;10.80;;
19609;SDS011;9952;47.122;-1.638;2022-12-07T01:31:06;16.60;;;10.00;;
19609;SDS011;9952;47.122;-1.638;2022-12-07T01:35:49;19.03;;;10.50;;
19609;SDS011;9952;47.122;-1.638;2022-12-07T01:40:30;17.27;;;10.07;;
19609;SDS011;9952;47.122;-1.638;2022-12-07T01:49:57;16.50;;;9.37;;
19609;SDS011;9952;47.122;-1.638;2022-12-07T01:54:38;15.80;;;8.63;;
19609;SDS011;9952;47.122;-1.638;2022-12-07T01:59:21;17.27;;;9.13;;
19609;SDS011;9952;47.122;-1.638;2022-12-07T02:04:05;13.73;;;8.27;;
19609;SDS011;9952;47.122;-1.638;2022-12-07T02:08:46;13.20;;;7.20;;
19609;SDS011;9952;47.122;-1.638;2022-12-07T02:13:31;13.10;;;8.07;;
19609;SDS011;9952;47.122;-1.638;2022-12-07T02:28:21;14.47;;;8.63;;
19609;SDS011;9952;47.122;-1.638;2022-12-07T02:33:18;15.40;;;8.23;;
19609;SDS011;9952;47.122;-1.638;2022-12-07T02:48:05;13.13;;;7.30;;
19609;SDS011;9952;47.122;-1.638;2022-12-07T02:52:48;13.53;;;7.43;;
19609;SDS011;9952;47.122;-1.638;2022-12-07T02:57:42;13.23;;;7.33;;
19609;SDS011;9952;47.122;-1.638;2022-12-07T03:12:18;14.43;;;8.10;;
19609;SDS011;9952;47.122;-1.638;2022-12-07T03:17:18;12.87;;;7.57;;
19609;SDS011;9952;47.122;-1.638;2022-12-07T03:22:05;13.43;;;7.00;;
19609;SDS011;9952;47.122;-1.638;2022-12-07T03:26:52;11.97;;;7.43;;
19609;SDS011;9952;47.122;-1.638;2022-12-07T03:32:02;13.47;;;7.60;;
19609;SDS011;9952;47.122;-1.638;2022-12-07T03:36:56;15.90;;;7.87;;
19609;SDS011;9952;47.122;-1.638;2022-12-07T03:41:49;14.10;;;8.00;;
19609;SDS011;9952;47.122;-1.638;2022-12-07T03:46:37;13.77;;;7.70;;
19609;SDS011;9952;47.122;-1.638;2022-12-07T03:56:22;13.70;;;7.33;;
19609;SDS011;9952;47.122;-1.638;2022-12-07T04:01:03;12.37;;;6.63;;
19609;SDS011;9952;47.122;-1.638;2022-12-07T04:05:44;10.13;;;5.90;;
19609;SDS011;9952;47.122;-1.638;2022-12-07T04:10:25;10.37;;;5.60;;
19609;SDS011;9952;47.122;-1.638;2022-12-07T04:15:06;10.90;;;5.80;;
19609;SDS011;9952;47.122;-1.638;2022-12-07T04:19:48;10.93;;;5.73;;
19609;SDS011;9952;47.122;-1.638;2022-12-07T04:24:28;9.77;;;5.83;;
19609;SDS011;9952;47.122;-1.638;2022-12-07T04:29:09;12.77;;;7.00;;
19609;SDS011;9952;47.122;-1.638;2022-12-07T04:33:50;15.80;;;8.43;;
19609;SDS011;9952;47.122;-1.638;2022-12-07T04:38:31;17.30;;;8.93;;
19609;SDS011;9952;47.122;-1.638;2022-12-07T04:43:12;15.80;;;8.40;;
19609;SDS011;9952;47.122;-1.638;2022-12-07T04:47:53;18.50;;;9.23;;
19609;SDS011;9952;47.122;-1.638;2022-12-07T04:52:34;15.50;;;8.53;;
19609;SDS011;9952;47.122;-1.638;2022-12-07T04:57:15;20.50;;;9.77;;
19609;SDS011;9952;47.122;-1.638;2022-12-07T05:01:55;17.93;;;9.70;;
19609;SDS011;9952;47.122;-1.638;2022-12-07T05:06:36;18.03;;;8.83;;
19609;SDS011;9952;47.122;-1.638;2022-12-07T05:11:17;19.43;;;9.53;;
19609;SDS011;9952;47.122;-1.638;2022-12-07T05:16:17;20.43;;;9.63;;
19609;SDS011;9952;47.122;-1.638;2022-12-07T05:20:57;21.53;;;10.17;;
19609;SDS011;9952;47.122;-1.638;2022-12-07T05:25:38;20.03;;;9.43;;
19609;SDS011;9952;47.122;-1.638;2022-12-07T05:30:19;24.10;;;10.27;;
19609;SDS011;9952;47.122;-1.638;2022-12-07T05:35:00;21.43;;;10.63;;
19609;SDS011;9952;47.122;-1.638;2022-12-07T05:39:41;21.13;;;9.93;;
19609;SDS011;9952;47.122;-1.638;2022-12-07T05:44:22;22.13;;;9.97;;
19609;SDS011;9952;47.122;-1.638;2022-12-07T05:49:03;20.80;;;10.40;;
19609;SDS011;9952;47.122;-1.638;2022-12-07T05:53:44;21.27;;;9.73;;
19609;SDS011;9952;47.122;-1.638;2022-12-07T05:58:25;20.53;;;9.93;;
19609;SDS011;9952;47.122;-1.638;2022-12-07T06:03:24;18.93;;;10.23;;
19609;SDS011;9952;47.122;-1.638;2022-12-07T06:08:05;24.27;;;11.03;;
19609;SDS011;9952;47.122;-1.638;2022-12-07T06:12:46;20.40;;;10.90;;
19609;SDS011;9952;47.122;-1.638;2022-12-07T06:17:26;25.97;;;11.90;;
19609;SDS011;9952;47.122;-1.638;2022-12-07T06:22:07;21.20;;;10.83;;
19609;SDS011;9952;47.122;-1.638;2022-12-07T06:26:49;25.70;;;11.43;;
19609;SDS011;9952;47.122;-1.638;2022-12-07T06:31:29;24.63;;;10.97;;
19609;SDS011;9952;47.122;-1.638;2022-12-07T06:36:10;22.40;;;10.97;;
19609;SDS011;9952;47.122;-1.638;2022-12-07T06:40:51;22.30;;;12.20;;
19609;SDS011;9952;47.122;-1.638;2022-12-07T06:45:32;24.50;;;11.20;;
19609;SDS011;9952;47.122;-1.638;2022-12-07T06:50:13;22.07;;;11.50;;
19609;SDS011;9952;47.122;-1.638;2022-12-07T06:54:54;27.93;;;12.73;;
19609;SDS011;9952;47.122;-1.638;2022-12-07T06:59:35;28.57;;;13.73;;
19609;SDS011;9952;47.122;-1.638;2022-12-07T07:04:15;30.63;;;13.87;;
19609;SDS011;9952;47.122;-1.638;2022-12-07T07:08:56;32.13;;;14.20;;
19609;SDS011;9952;47.122;-1.638;2022-12-07T07:13:37;30.67;;;12.43;;
19609;SDS011;9952;47.122;-1.638;2022-12-07T07:18:18;28.83;;;13.07;;
19609;SDS011;9952;47.122;-1.638;2022-12-07T07:22:59;29.53;;;13.53;;
19609;SDS011;9952;47.122;-1.638;2022-12-07T07:27:39;33.80;;;14.73;;
19609;SDS011;9952;47.122;-1.638;2022-12-07T07:32:20;27.23;;;12.40;;
19609;SDS011;9952;47.122;-1.638;2022-12-07T07:37:02;34.27;;;14.60;;
19609;SDS011;9952;47.122;-1.638;2022-12-07T07:41:44;33.17;;;14.47;;
19609;SDS011;9952;47.122;-1.638;2022-12-07T07:46:24;31.33;;;14.43;;
19609;SDS011;9952;47.122;-1.638;2022-12-07T07:51:06;36.47;;;14.23;;
19609;SDS011;9952;47.122;-1.638;2022-12-07T07:55:50;39.50;;;15.83;;
19609;SDS011;9952;47.122;-1.638;2022-12-07T08:00:32;34.33;;;15.43;;
19609;SDS011;9952;47.122;-1.638;2022-12-07T08:05:13;37.40;;;16.03;;
19609;SDS011;9952;47.122;-1.638;2022-12-07T08:09:54;38.57;;;16.03;;
19609;SDS011;9952;47.122;-1.638;2022-12-07T08:14:35;35.00;;;16.07;;
19609;SDS011;9952;47.122;-1.638;2022-12-07T08:19:15;35.30;;;14.63;;
19609;SDS011;9952;47.122;-1.638;2022-12-07T08:23:57;34.47;;;15.17;;
19609;SDS011;9952;47.122;-1.638;2022-12-07T08:28:38;31.20;;;14.60;;
19609;SDS011;9952;47.122;-1.638;2022-12-07T08:33:19;34.17;;;13.90;;
19609;SDS011;9952;47.122;-1.638;2022-12-07T08:38:02;34.23;;;14.57;;
19609;SDS011;9952;47.122;-1.638;2022-12-07T08:42:43;30.87;;;15.00;;
19609;SDS011;9952;47.122;-1.638;2022-12-07T08:47:29;37.43;;;15.00;;
19609;SDS011;9952;47.122;-1.638;2022-12-07T08:52:10;29.73;;;14.10;;
19609;SDS011;9952;47.122;-1.638;2022-12-07T08:56:51;33.77;;;14.37;;
19609;SDS011;9952;47.122;-1.638;2022-12-07T09:01:35;31.53;;;14.13;;
19609;SDS011;9952;47.122;-1.638;2022-12-07T09:06:16;35.57;;;14.57;;
19609;SDS011;9952;47.122;-1.638;2022-12-07T09:10:56;31.13;;;13.73;;
19609;SDS011;9952;47.122;-1.638;2022-12-07T09:15:37;33.50;;;15.77;;
19609;SDS011;9952;47.122;-1.638;2022-12-07T09:20:18;33.37;;;14.37;;
19609;SDS011;9952;47.122;-1.638;2022-12-07T09:24:59;33.53;;;14.57;;
19609;SDS011;9952;47.122;-1.638;2022-12-07T09:29:40;31.50;;;13.63;;
19609;SDS011;9952;47.122;-1.638;2022-12-07T09:34:21;33.30;;;14.90;;
19609;SDS011;9952;47.122;-1.638;2022-12-07T09:39:02;29.57;;;12.97;;
19609;SDS011;9952;47.122;-1.638;2022-12-07T09:43:44;34.20;;;14.27;;
19609;SDS011;9952;47.122;-1.638;2022-12-07T09:48:29;29.20;;;13.30;;
19609;SDS011;9952;47.122;-1.638;2022-12-07T09:53:37;35.93;;;14.40;;
19609;SDS011;9952;47.122;-1.638;2022-12-07T09:58:25;26.57;;;12.63;;
19609;SDS011;9952;47.122;-1.638;2022-12-07T10:03:07;32.50;;;13.50;;
19609;SDS011;9952;47.122;-1.638;2022-12-07T10:07:51;30.07;;;12.70;;
19609;SDS011;9952;47.122;-1.638;2022-12-07T10:12:44;24.60;;;12.13;;
19609;SDS011;9952;47.122;-1.638;2022-12-07T10:17:38;26.70;;;12.17;;
19609;SDS011;9952;47.122;-1.638;2022-12-07T10:22:20;26.80;;;11.90;;
19609;SDS011;9952;47.122;-1.638;2022-12-07T10:27:01;27.70;;;11.87;;
19609;SDS011;9952;47.122;-1.638;2022-12-07T10:31:43;26.43;;;12.10;;
19609;SDS011;9952;47.122;-1.638;2022-12-07T10:36:30;29.47;;;13.23;;
19609;SDS011;9952;47.122;-1.638;2022-12-07T10:41:14;24.00;;;11.23;;
19609;SDS011;9952;47.122;-1.638;2022-12-07T10:56:00;21.93;;;11.00;;
19609;SDS011;9952;47.122;-1.638;2022-12-07T11:00:44;24.47;;;11.57;;
19609;SDS011;9952;47.122;-1.638;2022-12-07T11:25:53;21.03;;;10.23;;
19609;SDS011;9952;47.122;-1.638;2022-12-07T11:36:25;21.77;;;10.80;;
19609;SDS011;9952;47.122;-1.638;2022-12-07T11:46:43;21.90;;;10.80;;
19609;SDS011;9952;47.122;-1.638;2022-12-07T11:51:33;22.73;;;11.27;;
19609;SDS011;9952;47.122;-1.638;2022-12-07T11:56:21;20.83;;;11.00;;
19609;SDS011;9952;47.122;-1.638;2022-12-07T12:06:02;20.03;;;9.73;;
19609;SDS011;9952;47.122;-1.638;2022-12-07T12:25:25;20.63;;;9.10;;
19609;SDS011;9952;47.122;-1.638;2022-12-07T12:45:30;22.50;;;10.17;;
19609;SDS011;9952;47.122;-1.638;2022-12-07T12:50:17;18.53;;;10.10;;
19609;SDS011;9952;47.122;-1.638;2022-12-07T13:04:38;18.57;;;9.37;;
19609;SDS011;9952;47.122;-1.638;2022-12-07T13:09:29;20.50;;;10.23;;
19609;SDS011;9952;47.122;-1.638;2022-12-07T13:24:21;16.27;;;8.43;;
19609;SDS011;9952;47.122;-1.638;2022-12-07T13:33:53;15.37;;;8.07;;
19609;SDS011;9952;47.122;-1.638;2022-12-07T13:38:35;15.70;;;8.17;;
19609;SDS011;9952;47.122;-1.638;2022-12-07T13:43:17;14.20;;;7.87;;
19609;SDS011;9952;47.122;-1.638;2022-12-07T13:47:59;14.87;;;8.40;;
19609;SDS011;9952;47.122;-1.638;2022-12-07T13:52:43;16.37;;;7.77;;
19609;SDS011;9952;47.122;-1.638;2022-12-07T13:57:25;14.70;;;7.30;;
19609;SDS011;9952;47.122;-1.638;2022-12-07T14:02:19;16.00;;;7.30;;
19609;SDS011;9952;47.122;-1.638;2022-12-07T14:07:15;12.50;;;6.87;;
19609;SDS011;9952;47.122;-1.638;2022-12-07T14:12:05;15.97;;;7.63;;
19609;SDS011;9952;47.122;-1.638;2022-12-07T14:16:57;11.93;;;6.57;;
19609;SDS011;9952;47.122;-1.638;2022-12-07T14:21:48;15.77;;;8.00;;
19609;SDS011;9952;47.122;-1.638;2022-12-07T14:26:48;11.73;;;6.40;;
19609;SDS011;9952;47.122;-1.638;2022-12-07T14:31:30;12.77;;;6.17;;
19609;SDS011;9952;47.122;-1.638;2022-12-07T14:36:13;15.00;;;7.87;;
19609;SDS011;9952;47.122;-1.638;2022-12-07T14:40:55;15.17;;;7.33;;
19609;SDS011;9952;47.122;-1.638;2022-12-07T14:45:56;12.10;;;5.97;;
19609;SDS011;9952;47.122;-1.638;2022-12-07T14:50:38;10.57;;;6.20;;
19609;SDS011;9952;47.122;-1.638;2022-12-07T14:55:26;13.40;;;5.93;;
19609;SDS011;9952;47.122;-1.638;2022-12-07T15:00:13;14.37;;;7.10;;
19609;SDS011;9952;47.122;-1.638;2022-12-07T15:04:54;17.43;;;7.67;;
19609;SDS011;9952;47.122;-1.638;2022-12-07T15:09:35;16.10;;;8.07;;
19609;SDS011;9952;47.122;-1.638;2022-12-07T15:14:16;15.50;;;6.97;;
19609;SDS011;9952;47.122;-1.638;2022-12-07T15:18:57;13.53;;;6.73;;
19609;SDS011;9952;47.122;-1.638;2022-12-07T15:23:38;25.50;;;15.10;;
19609;SDS011;9952;47.122;-1.638;2022-12-07T15:28:19;16.27;;;9.77;;
19609;SDS011;9952;47.122;-1.638;2022-12-07T15:32:59;21.30;;;13.67;;
19609;SDS011;9952;47.122;-1.638;2022-12-07T15:37:41;18.67;;;10.67;;
19609;SDS011;9952;47.122;-1.638;2022-12-07T15:42:21;15.60;;;8.63;;
19609;SDS011;9952;47.122;-1.638;2022-12-07T15:47:03;16.67;;;8.37;;
19609;SDS011;9952;47.122;-1.638;2022-12-07T15:51:45;19.53;;;9.47;;
19609;SDS011;9952;47.122;-1.638;2022-12-07T15:56:26;19.03;;;9.83;;
19609;SDS011;9952;47.122;-1.638;2022-12-07T16:01:10;18.67;;;9.27;;
19609;SDS011;9952;47.122;-1.638;2022-12-07T16:05:55;16.43;;;8.97;;
19609;SDS011;9952;47.122;-1.638;2022-12-07T16:10:35;17.77;;;9.13;;
19609;SDS011;9952;47.122;-1.638;2022-12-07T16:15:16;18.10;;;8.57;;
19609;SDS011;9952;47.122;-1.638;2022-12-07T16:19:57;17.50;;;8.43;;
19609;SDS011;9952;47.122;-1.638;2022-12-07T16:24:38;20.10;;;9.70;;
19609;SDS011;9952;47.122;-1.638;2022-12-07T16:29:19;19.17;;;8.97;;
19609;SDS011;9952;47.122;-1.638;2022-12-07T16:34:01;22.63;;;11.20;;
19609;SDS011;9952;47.122;-1.638;2022-12-07T16:38:42;16.43;;;9.30;;
19609;SDS011;9952;47.122;-1.638;2022-12-07T16:43:23;18.83;;;9.63;;
19609;SDS011;9952;47.122;-1.638;2022-12-07T16:48:04;21.53;;;11.33;;
19609;SDS011;9952;47.122;-1.638;2022-12-07T16:52:45;18.20;;;10.77;;
19609;SDS011;9952;47.122;-1.638;2022-12-07T16:57:25;22.20;;;9.93;;
19609;SDS011;9952;47.122;-1.638;2022-12-07T17:02:08;17.37;;;10.73;;
19609;SDS011;9952;47.122;-1.638;2022-12-07T17:06:51;34.07;;;19.47;;
19609;SDS011;9952;47.122;-1.638;2022-12-07T17:11:32;22.57;;;11.23;;
19609;SDS011;9952;47.122;-1.638;2022-12-07T17:16:13;25.13;;;14.23;;
19609;SDS011;9952;47.122;-1.638;2022-12-07T17:20:54;26.23;;;14.00;;
19609;SDS011;9952;47.122;-1.638;2022-12-07T17:25:35;27.27;;;14.03;;
19609;SDS011;9952;47.122;-1.638;2022-12-07T17:30:15;42.33;;;20.40;;
19609;SDS011;9952;47.122;-1.638;2022-12-07T17:34:56;27.60;;;13.93;;
19609;SDS011;9952;47.122;-1.638;2022-12-07T17:39:37;22.97;;;12.23;;
19609;SDS011;9952;47.122;-1.638;2022-12-07T17:44:18;24.37;;;13.33;;
19609;SDS011;9952;47.122;-1.638;2022-12-07T17:49:00;28.50;;;15.53;;
19609;SDS011;9952;47.122;-1.638;2022-12-07T17:53:41;38.57;;;19.93;;
19609;SDS011;9952;47.122;-1.638;2022-12-07T17:58:22;35.97;;;20.93;;
19609;SDS011;9952;47.122;-1.638;2022-12-07T18:03:04;28.70;;;13.33;;
19609;SDS011;9952;47.122;-1.638;2022-12-07T18:07:46;26.90;;;15.77;;
19609;SDS011;9952;47.122;-1.638;2022-12-07T18:12:27;22.90;;;11.57;;
19609;SDS011;9952;47.122;-1.638;2022-12-07T18:17:08;28.70;;;15.93;;
19609;SDS011;9952;47.122;-1.638;2022-12-07T18:21:48;26.80;;;13.60;;
19609;SDS011;9952;47.122;-1.638;2022-12-07T18:26:30;28.97;;;10.57;;
19609;SDS011;9952;47.122;-1.638;2022-12-07T18:31:14;32.90;;;17.20;;
19609;SDS011;9952;47.122;-1.638;2022-12-07T18:35:57;26.40;;;12.80;;
19609;SDS011;9952;47.122;-1.638;2022-12-07T18:40:39;28.60;;;12.77;;
19609;SDS011;9952;47.122;-1.638;2022-12-07T18:45:20;26.20;;;14.60;;
19609;SDS011;9952;47.122;-1.638;2022-12-07T18:50:02;42.80;;;22.70;;
19609;SDS011;9952;47.122;-1.638;2022-12-07T18:54:43;40.07;;;23.20;;
19609;SDS011;9952;47.122;-1.638;2022-12-07T18:59:24;48.10;;;23.80;;
19609;SDS011;9952;47.122;-1.638;2022-12-07T19:04:23;49.73;;;28.10;;
19609;SDS011;9952;47.122;-1.638;2022-12-07T19:09:04;41.10;;;23.33;;
19609;SDS011;9952;47.122;-1.638;2022-12-07T19:13:45;47.40;;;26.50;;
19609;SDS011;9952;47.122;-1.638;2022-12-07T19:18:25;39.73;;;21.70;;
19609;SDS011;9952;47.122;-1.638;2022-12-07T19:23:06;36.40;;;19.53;;
19609;SDS011;9952;47.122;-1.638;2022-12-07T19:27:47;35.73;;;19.97;;
19609;SDS011;9952;47.122;-1.638;2022-12-07T19:32:28;29.97;;;14.60;;
19609;SDS011;9952;47.122;-1.638;2022-12-07T19:37:10;30.67;;;14.77;;
19609;SDS011;9952;47.122;-1.638;2022-12-07T19:41:52;33.70;;;16.30;;
19609;SDS011;9952;47.122;-1.638;2022-12-07T19:46:33;34.43;;;17.10;;
19609;SDS011;9952;47.122;-1.638;2022-12-07T19:51:14;36.87;;;19.33;;
19609;SDS011;9952;47.122;-1.638;2022-12-07T19:55:55;36.47;;;18.07;;
19609;SDS011;9952;47.122;-1.638;2022-12-07T20:00:36;33.20;;;18.20;;
19609;SDS011;9952;47.122;-1.638;2022-12-07T20:05:16;34.33;;;19.00;;
19609;SDS011;9952;47.122;-1.638;2022-12-07T20:09:57;35.47;;;18.17;;
19609;SDS011;9952;47.122;-1.638;2022-12-07T20:14:38;34.80;;;18.03;;
19609;SDS011;9952;47.122;-1.638;2022-12-07T20:19:19;31.47;;;17.37;;
19609;SDS011;9952;47.122;-1.638;2022-12-07T20:24:01;29.40;;;14.00;;
19609;SDS011;9952;47.122;-1.638;2022-12-07T20:28:43;28.30;;;15.27;;
19609;SDS011;9952;47.122;-1.638;2022-12-07T20:33:25;28.83;;;13.63;;
19609;SDS011;9952;47.122;-1.638;2022-12-07T20:38:07;28.80;;;13.30;;
19609;SDS011;9952;47.122;-1.638;2022-12-07T20:42:49;27.23;;;13.63;;
19609;SDS011;9952;47.122;-1.638;2022-12-07T20:47:30;30.87;;;15.83;;
19609;SDS011;9952;47.122;-1.638;2022-12-07T20:52:12;29.53;;;14.90;;
19609;SDS011;9952;47.122;-1.638;2022-12-07T20:56:56;29.30;;;14.73;;
19609;SDS011;9952;47.122;-1.638;2022-12-07T21:01:37;35.03;;;15.67;;
19609;SDS011;9952;47.122;-1.638;2022-12-07T21:06:18;25.57;;;13.80;;
19609;SDS011;9952;47.122;-1.638;2022-12-07T21:11:04;29.90;;;14.67;;
19609;SDS011;9952;47.122;-1.638;2022-12-07T21:15:47;27.90;;;13.90;;
19609;SDS011;9952;47.122;-1.638;2022-12-07T21:20:28;25.93;;;13.73;;
19609;SDS011;9952;47.122;-1.638;2022-12-07T21:25:09;25.60;;;13.83;;
19609;SDS011;9952;47.122;-1.638;2022-12-07T21:29:50;28.07;;;12.90;;
19609;SDS011;9952;47.122;-1.638;2022-12-07T21:34:30;27.07;;;13.57;;
19609;SDS011;9952;47.122;-1.638;2022-12-07T21:39:11;27.17;;;13.73;;
19609;SDS011;9952;47.122;-1.638;2022-12-07T21:43:52;27.70;;;13.20;;
19609;SDS011;9952;47.122;-1.638;2022-12-07T21:48:34;28.57;;;14.17;;
19609;SDS011;9952;47.122;-1.638;2022-12-07T21:53:15;28.13;;;15.70;;
19609;SDS011;9952;47.122;-1.638;2022-12-07T21:57:55;31.67;;;16.20;;
19609;SDS011;9952;47.122;-1.638;2022-12-07T22:02:36;29.10;;;14.63;;
19609;SDS011;9952;47.122;-1.638;2022-12-07T22:07:17;27.57;;;14.53;;
19609;SDS011;9952;47.122;-1.638;2022-12-07T22:11:58;33.27;;;14.43;;
19609;SDS011;9952;47.122;-1.638;2022-12-07T22:16:45;31.63;;;16.23;;
19609;SDS011;9952;47.122;-1.638;2022-12-07T22:21:44;34.87;;;16.50;;
19609;SDS011;9952;47.122;-1.638;2022-12-07T22:39:35;28.27;;;14.60;;
19609;SDS011;9952;47.122;-1.638;2022-12-07T22:44:30;32.90;;;17.03;;
19609;SDS011;9952;47.122;-1.638;2022-12-07T22:54:42;29.40;;;16.03;;
19609;SDS011;9952;47.122;-1.638;2022-12-07T22:59:50;28.03;;;15.07;;
19609;SDS011;9952;47.122;-1.638;2022-12-07T23:04:38;32.27;;;16.10;;
19609;SDS011;9952;47.122;-1.638;2022-12-07T23:09:30;28.83;;;14.63;;
19609;SDS011;9952;47.122;-1.638;2022-12-07T23:14:31;30.87;;;15.73;;
19609;SDS011;9952;47.122;-1.638;2022-12-07T23:19:16;28.90;;;15.07;;
19609;SDS011;9952;47.122;-1.638;2022-12-07T23:24:02;31.60;;;16.27;;
19609;SDS011;9952;47.122;-1.638;2022-12-07T23:28:55;35.27;;;17.57;;
19609;SDS011;9952;47.122;-1.638;2022-12-07T23:33:39;34.37;;;17.57;;
19609;SDS011;9952;47.122;-1.638;2022-12-07T23:38:24;34.40;;;16.67;;
19609;SDS011;9952;47.122;-1.638;2022-12-07T23:43:10;31.03;;;16.00;;
19609;SDS011;9952;47.122;-1.638;2022-12-07T23:47:54;32.73;;;16.43;;
19609;SDS011;9952;47.122;-1.638;2022-12-07T23:52:39;34.07;;;17.97;;
19609;SDS011;9952;47.122;-1.638;2022-12-07T23:57:20;33.17;;;16.80;;
